createdAt,value
2022-09-30T15:07:30.296Z,64.58
2022-09-30T15:08:32.461Z,64.88
2022-09-30T15:09:44.176Z,68.94
2022-09-30T15:10:51.953Z,67.69
2022-09-30T15:11:54.359Z,68.14
2022-09-30T15:12:56.403Z,69.47
2022-09-30T15:14:08.449Z,68.43
2022-09-30T15:15:40.662Z,68.15
2022-09-30T15:16:47.202Z,70.00
2022-09-30T15:17:51.991Z,70.88
2022-09-30T15:18:53.944Z,71.66
2022-09-30T15:19:57.578Z,71.11
2022-09-30T15:21:09.001Z,70.69
2022-09-30T15:22:14.212Z,69.51
2022-09-30T15:23:21.478Z,68.48
2022-09-30T15:24:25.949Z,68.36
2022-09-30T15:25:28.457Z,69.09
2022-09-30T15:26:32.277Z,69.44
2022-09-30T15:27:37.004Z,70.17
2022-09-30T15:28:39.900Z,70.01
2022-09-30T15:29:54.717Z,69.94
2022-09-30T15:30:58.950Z,71.52
2022-09-30T15:32:14.515Z,72.47
2022-09-30T15:33:19.009Z,74.51
2022-09-30T15:34:24.816Z,72.97
2022-09-30T15:35:27.386Z,73.85
2022-09-30T15:36:29.224Z,73.86
2022-09-30T15:37:33.690Z,75.88
2022-09-30T15:38:38.209Z,77.01
2022-09-30T15:40:04.890Z,77.19
2022-09-30T15:41:12.826Z,76.32
2022-09-30T15:42:37.622Z,77.13
2022-09-30T15:43:52.424Z,77.30
2022-09-30T15:44:54.311Z,75.99
2022-09-30T15:45:59.613Z,76.37
2022-09-30T15:47:12.196Z,75.54
2022-09-30T15:48:25.865Z,75.44
2022-09-30T15:49:38.389Z,76.09
2022-09-30T15:50:44.167Z,76.94
2022-09-30T15:51:46.240Z,75.96
2022-09-30T15:52:51.154Z,75.88
2022-09-30T15:53:53.324Z,75.74
2022-09-30T15:54:56.171Z,75.77
2022-09-30T15:55:59.684Z,75.74
2022-09-30T15:57:04.608Z,75.96
2022-09-30T15:58:29.692Z,75.03
2022-09-30T15:59:58.008Z,75.41
2022-09-30T16:01:23.546Z,73.05
2022-09-30T16:02:26.526Z,72.98
2022-09-30T16:03:30.002Z,72.19
2022-09-30T16:04:32.399Z,72.79
2022-09-30T16:05:34.140Z,73.24
2022-09-30T16:06:55.695Z,72.52
2022-09-30T16:07:57.428Z,73.00
2022-09-30T16:09:02.354Z,73.68
2022-09-30T16:10:04.520Z,74.30
2022-09-30T16:11:08.556Z,74.01
2022-09-30T16:12:13.428Z,74.58
2022-09-30T16:13:15.993Z,79.22
2022-09-30T16:14:30.240Z,80.81
2022-09-30T16:15:41.635Z,81.70
2022-09-30T16:16:50.073Z,82.10
2022-09-30T16:17:52.134Z,82.66
2022-09-30T16:18:56.930Z,83.61
2022-09-30T16:20:01.652Z,84.05
2022-09-30T16:21:05.651Z,84.76
2022-09-30T16:22:42.300Z,85.25
2022-09-30T16:23:44.055Z,86.40
2022-09-30T16:24:47.325Z,87.63
2022-09-30T16:25:49.662Z,88.74
2022-09-30T16:26:59.409Z,89.98
2022-09-30T16:28:12.365Z,90.18
2022-09-30T16:29:17.573Z,91.19
2022-09-30T16:30:20.436Z,92.40
2022-09-30T16:31:25.367Z,94.46
2022-09-30T16:32:29.971Z,94.80
2022-09-30T16:33:31.968Z,95.62
2022-09-30T16:34:37.461Z,96.73
2022-09-30T16:35:42.641Z,97.22
2022-09-30T16:36:44.466Z,98.89
2022-09-30T16:37:47.633Z,99.74
2022-09-30T16:38:49.616Z,100.00
2022-09-30T16:39:51.537Z,100.00
2022-09-30T16:40:53.271Z,100.00
2022-09-30T16:41:55.273Z,100.00
2022-09-30T16:42:58.844Z,100.00
2022-09-30T16:44:01.068Z,100.00
2022-09-30T16:45:04.518Z,100.00
2022-09-30T16:46:07.155Z,100.00
2022-09-30T16:47:13.278Z,100.00
2022-09-30T16:48:17.154Z,100.00
2022-09-30T16:49:20.075Z,100.00
2022-09-30T16:50:40.040Z,100.00
2022-09-30T16:51:42.237Z,100.00
2022-09-30T16:52:43.932Z,100.00
2022-09-30T16:53:47.890Z,100.00
2022-09-30T16:54:49.658Z,100.00
2022-09-30T16:55:52.332Z,100.00
2022-09-30T16:56:56.513Z,100.00
2022-09-30T16:58:00.940Z,100.00
2022-09-30T16:59:02.809Z,100.00
2022-09-30T17:00:05.978Z,100.00
2022-09-30T17:01:25.447Z,100.00
2022-09-30T17:02:27.493Z,100.00
2022-09-30T17:03:29.411Z,100.00
2022-09-30T17:04:33.375Z,100.00
2022-09-30T17:05:35.304Z,100.00
2022-09-30T17:06:37.541Z,100.00
2022-09-30T17:07:39.289Z,100.00
2022-09-30T17:08:41.465Z,100.00
2022-09-30T17:09:43.291Z,100.00
2022-09-30T17:10:48.818Z,100.00
2022-09-30T17:11:53.388Z,100.00
2022-09-30T17:13:00.379Z,100.00
2022-09-30T17:14:05.052Z,100.00
2022-09-30T17:15:07.289Z,100.00
2022-09-30T17:16:09.432Z,100.00
2022-09-30T17:17:13.802Z,100.00
2022-09-30T17:18:17.429Z,100.00
2022-09-30T17:19:19.143Z,100.00
2022-09-30T17:20:22.587Z,100.00
2022-09-30T17:21:26.498Z,100.00
2022-09-30T17:22:28.197Z,100.00
2022-09-30T17:23:30.035Z,100.00
2022-09-30T17:24:31.971Z,100.00
2022-09-30T17:25:34.130Z,100.00
2022-09-30T17:26:36.995Z,100.00
2022-09-30T17:27:39.300Z,100.00
2022-09-30T17:28:40.995Z,100.00
2022-09-30T17:29:42.673Z,100.00
2022-09-30T17:30:47.884Z,100.00
2022-09-30T17:31:49.790Z,100.00
2022-09-30T17:32:52.622Z,100.00
2022-09-30T17:33:54.285Z,100.00
2022-09-30T17:34:56.119Z,100.00
2022-09-30T17:35:59.631Z,100.00
2022-09-30T17:37:01.275Z,100.00
2022-09-30T17:38:07.484Z,100.00
2022-09-30T17:39:11.362Z,100.00
2022-09-30T17:40:32.211Z,100.00
2022-09-30T17:42:07.108Z,100.00
2022-09-30T17:43:10.664Z,100.00
2022-09-30T17:44:12.663Z,100.00
2022-09-30T17:45:14.360Z,100.00
2022-09-30T17:46:22.383Z,100.00
2022-09-30T17:47:24.322Z,100.00
2022-09-30T17:48:26.036Z,100.00
2022-09-30T17:49:35.109Z,100.00
2022-09-30T17:50:38.697Z,100.00
2022-09-30T17:51:40.503Z,100.00
2022-09-30T17:52:42.267Z,100.00
2022-09-30T17:53:44.678Z,100.00
2022-09-30T17:54:51.156Z,100.00
2022-09-30T17:56:10.132Z,100.00
2022-09-30T17:57:11.884Z,100.00
2022-09-30T17:58:15.024Z,100.00
2022-09-30T17:59:19.170Z,100.00
2022-09-30T18:00:20.820Z,100.00
2022-09-30T18:01:22.741Z,100.00
2022-09-30T18:02:25.459Z,100.00
2022-09-30T18:03:28.270Z,100.00
2022-09-30T18:04:30.160Z,100.00
2022-09-30T18:05:35.639Z,100.00
2022-09-30T18:06:37.450Z,100.00
2022-09-30T18:07:39.187Z,100.00
2022-09-30T18:08:41.175Z,100.00
2022-09-30T18:09:42.799Z,100.00
2022-09-30T18:10:44.448Z,100.00
2022-09-30T18:11:46.251Z,100.00
2022-09-30T18:12:49.434Z,100.00
2022-09-30T18:13:55.916Z,100.00
2022-09-30T18:14:59.626Z,100.00
2022-09-30T18:16:06.154Z,100.00
2022-09-30T18:17:08.093Z,100.00
2022-09-30T18:18:09.819Z,100.00
2022-09-30T18:19:11.506Z,100.00
2022-09-30T18:20:14.201Z,100.00
2022-09-30T18:21:15.909Z,100.00
2022-09-30T18:22:17.775Z,100.00
2022-09-30T18:23:19.608Z,100.00
2022-09-30T18:24:41.242Z,100.00
2022-09-30T18:25:43.895Z,100.00
2022-09-30T18:26:45.747Z,100.00
2022-09-30T18:27:52.669Z,100.00
2022-09-30T18:28:58.094Z,100.00
2022-09-30T18:30:01.473Z,100.00
2022-09-30T18:31:08.661Z,100.00
2022-09-30T18:32:10.719Z,100.00
2022-09-30T18:33:13.446Z,100.00
2022-09-30T18:34:15.334Z,100.00
2022-09-30T18:35:20.075Z,100.00
2022-09-30T18:36:23.021Z,100.00
2022-09-30T18:37:25.819Z,100.00
2022-09-30T18:38:28.440Z,100.00
2022-09-30T18:39:31.326Z,100.00
2022-09-30T18:40:33.485Z,100.00
2022-09-30T18:41:37.359Z,100.00
2022-09-30T18:42:40.755Z,100.00
2022-09-30T18:43:45.368Z,100.00
2022-09-30T18:44:47.956Z,100.00
2022-09-30T18:45:57.510Z,100.00
2022-09-30T18:46:59.749Z,100.00
2022-09-30T18:48:01.617Z,100.00
2022-09-30T18:49:04.497Z,100.00
2022-09-30T18:50:06.860Z,100.00
2022-09-30T18:51:08.897Z,100.00
2022-09-30T18:52:10.939Z,100.00
2022-09-30T18:53:12.814Z,100.00
2022-09-30T18:54:16.239Z,100.00
2022-09-30T18:55:18.702Z,100.00
2022-09-30T18:56:21.804Z,100.00
2022-09-30T18:57:23.623Z,100.00
2022-09-30T18:58:25.691Z,100.00
2022-09-30T18:59:27.428Z,100.00
2022-09-30T19:00:30.268Z,100.00
2022-09-30T19:01:33.939Z,100.00
2022-09-30T19:02:36.495Z,100.00
2022-09-30T19:03:38.312Z,100.00
2022-09-30T19:04:39.988Z,100.00
2022-09-30T19:05:41.919Z,100.00
2022-09-30T19:06:45.232Z,100.00
2022-09-30T19:07:47.234Z,100.00
2022-09-30T19:08:48.931Z,100.00
2022-09-30T19:09:50.957Z,100.00
2022-09-30T19:10:54.656Z,100.00
2022-09-30T19:11:56.398Z,100.00
2022-09-30T19:13:01.412Z,100.00
2022-09-30T19:14:03.862Z,100.00
2022-09-30T19:15:08.586Z,100.00
2022-09-30T19:16:11.761Z,100.00
2022-09-30T19:17:14.113Z,100.00
2022-09-30T19:18:15.887Z,100.00
2022-09-30T19:19:18.404Z,100.00
2022-09-30T19:20:20.097Z,100.00
2022-09-30T19:21:22.377Z,100.00
2022-09-30T19:22:25.047Z,100.00
2022-09-30T19:23:26.792Z,100.00
2022-09-30T19:24:28.517Z,100.00
2022-09-30T19:25:30.312Z,100.00
2022-09-30T19:26:34.384Z,100.00
2022-09-30T19:27:37.779Z,100.00
2022-09-30T19:28:39.553Z,100.00
2022-09-30T19:29:41.503Z,100.00
2022-09-30T19:30:43.217Z,100.00
2022-09-30T19:31:45.393Z,100.00
2022-09-30T19:32:47.182Z,100.00
2022-09-30T19:33:55.716Z,100.00
2022-09-30T19:35:05.200Z,100.00
2022-09-30T19:36:14.840Z,100.00
2022-09-30T19:37:26.205Z,100.00
2022-09-30T19:38:38.134Z,100.00
2022-09-30T19:39:45.733Z,100.00
2022-09-30T19:40:55.381Z,100.00
2022-09-30T19:42:01.610Z,100.00
2022-09-30T19:43:08.138Z,100.00
2022-09-30T19:44:10.153Z,100.00
2022-09-30T19:45:12.119Z,100.00
2022-09-30T19:46:14.294Z,100.00
2022-09-30T19:47:16.900Z,100.00
2022-09-30T19:48:19.441Z,100.00
2022-09-30T19:49:23.450Z,100.00
2022-09-30T19:50:25.312Z,100.00
2022-09-30T19:51:29.409Z,100.00
2022-09-30T19:52:31.229Z,100.00
2022-09-30T19:53:42.148Z,100.00
2022-09-30T19:54:44.462Z,100.00
2022-09-30T19:55:51.007Z,100.00
2022-09-30T19:56:53.420Z,100.00
2022-09-30T19:57:55.274Z,100.00
2022-09-30T19:59:00.137Z,100.00
2022-09-30T20:00:05.355Z,100.00
2022-09-30T20:01:08.892Z,100.00
2022-09-30T20:02:11.629Z,100.00
2022-09-30T20:03:13.530Z,100.00
2022-09-30T20:04:18.810Z,100.00
2022-09-30T20:05:21.336Z,100.00
2022-09-30T20:06:24.087Z,100.00
2022-09-30T20:07:28.234Z,100.00
2022-09-30T20:08:31.624Z,100.00
2022-09-30T20:09:33.617Z,100.00
2022-09-30T20:10:35.306Z,100.00
2022-09-30T20:11:38.608Z,100.00
2022-09-30T20:12:40.662Z,100.00
2022-09-30T20:13:43.597Z,100.00
2022-09-30T20:15:03.740Z,100.00
2022-09-30T20:16:10.954Z,100.00
2022-09-30T20:17:12.785Z,100.00
2022-09-30T20:18:14.517Z,100.00
2022-09-30T20:19:17.655Z,100.00
2022-09-30T20:20:34.492Z,100.00
2022-09-30T20:21:38.264Z,100.00
2022-09-30T20:22:40.011Z,100.00
2022-09-30T20:23:44.382Z,100.00
2022-09-30T20:24:46.327Z,100.00
2022-09-30T20:25:49.211Z,100.00
2022-09-30T20:26:50.962Z,100.00
2022-09-30T20:27:52.896Z,100.00
2022-09-30T20:28:58.921Z,100.00
2022-09-30T20:30:00.606Z,100.00
2022-09-30T20:31:07.201Z,100.00
2022-09-30T20:32:09.052Z,100.00
2022-09-30T20:33:12.618Z,100.00
2022-09-30T20:34:16.438Z,100.00
2022-09-30T20:35:18.401Z,100.00
2022-09-30T20:36:20.239Z,100.00
2022-09-30T20:37:22.059Z,100.00
2022-09-30T20:38:25.119Z,100.00
2022-09-30T20:39:26.847Z,100.00
2022-09-30T20:40:29.195Z,100.00
2022-09-30T20:41:36.038Z,100.00
2022-09-30T20:42:40.523Z,100.00
2022-09-30T20:43:43.423Z,100.00
2022-09-30T20:44:45.347Z,100.00
2022-09-30T20:45:53.063Z,100.00
2022-09-30T20:46:54.817Z,100.00
2022-09-30T20:47:57.202Z,100.00
2022-09-30T20:49:00.488Z,100.00
2022-09-30T20:50:02.302Z,100.00
2022-09-30T20:51:12.362Z,100.00
2022-09-30T20:52:15.165Z,100.00
2022-09-30T20:53:17.459Z,100.00
2022-09-30T20:54:19.534Z,100.00
2022-09-30T20:55:21.482Z,100.00
2022-09-30T20:56:24.758Z,100.00
2022-09-30T20:57:30.376Z,100.00
2022-09-30T20:58:32.339Z,100.00
2022-09-30T20:59:33.994Z,100.00
2022-09-30T21:00:37.971Z,100.00
2022-09-30T21:01:39.735Z,100.00
2022-09-30T21:02:41.981Z,100.00
2022-09-30T21:03:44.847Z,100.00
2022-09-30T21:04:50.664Z,100.00
2022-09-30T21:05:54.142Z,100.00
2022-09-30T21:06:55.833Z,100.00
2022-09-30T21:08:00.556Z,100.00
2022-09-30T21:09:03.680Z,100.00
2022-09-30T21:10:05.922Z,100.00
2022-09-30T21:11:07.604Z,100.00
2022-09-30T21:12:14.306Z,100.00
2022-09-30T21:13:16.270Z,100.00
2022-09-30T21:14:18.468Z,100.00
2022-09-30T21:15:20.432Z,100.00
2022-09-30T21:16:24.637Z,100.00
2022-09-30T21:17:26.701Z,100.00
2022-09-30T21:18:28.523Z,100.00
2022-09-30T21:19:30.167Z,100.00
2022-09-30T21:20:32.090Z,100.00
2022-09-30T21:21:34.133Z,100.00
2022-09-30T21:22:38.691Z,100.00
2022-09-30T21:23:40.892Z,100.00
2022-09-30T21:24:42.521Z,100.00
2022-09-30T21:25:44.527Z,100.00
2022-09-30T21:26:46.454Z,100.00
2022-09-30T21:27:48.926Z,100.00
2022-09-30T21:28:50.992Z,100.00
2022-09-30T21:29:52.564Z,100.00
2022-09-30T21:30:54.320Z,100.00
2022-09-30T21:31:56.034Z,100.00
2022-09-30T21:32:57.649Z,100.00
2022-09-30T21:34:00.241Z,100.00
2022-09-30T21:35:01.870Z,100.00
2022-09-30T21:36:06.194Z,100.00
2022-09-30T21:37:09.200Z,100.00
2022-09-30T21:38:12.386Z,100.00
2022-09-30T21:39:14.273Z,100.00
2022-09-30T21:40:16.023Z,100.00
2022-09-30T21:41:18.346Z,100.00
2022-09-30T21:42:20.148Z,100.00
2022-09-30T21:43:22.066Z,100.00
2022-09-30T21:44:25.629Z,100.00
2022-09-30T21:45:27.410Z,100.00
2022-09-30T21:46:29.551Z,100.00
2022-09-30T21:47:31.302Z,100.00
2022-09-30T21:48:33.992Z,100.00
2022-09-30T21:49:35.758Z,100.00
2022-09-30T21:50:37.757Z,100.00
2022-09-30T21:51:39.828Z,100.00
2022-09-30T21:52:41.438Z,100.00
2022-09-30T21:53:43.438Z,100.00
2022-09-30T21:54:49.932Z,100.00
2022-09-30T21:55:53.280Z,100.00
2022-09-30T21:56:54.945Z,100.00
2022-09-30T21:57:56.630Z,100.00
2022-09-30T21:58:58.659Z,100.00
2022-09-30T22:00:00.648Z,100.00
2022-09-30T22:01:05.458Z,100.00
2022-09-30T22:02:07.781Z,100.00
2022-09-30T22:03:10.864Z,100.00
2022-09-30T22:04:13.302Z,100.00
2022-09-30T22:05:20.464Z,100.00
2022-09-30T22:06:22.764Z,100.00
2022-09-30T22:07:25.197Z,100.00
2022-09-30T22:08:27.051Z,100.00
2022-09-30T22:09:28.732Z,100.00
2022-09-30T22:10:30.336Z,100.00
2022-09-30T22:11:32.384Z,100.00
2022-09-30T22:12:35.101Z,100.00
2022-09-30T22:13:40.636Z,100.00
2022-09-30T22:14:42.252Z,100.00
2022-09-30T22:15:46.215Z,100.00
2022-09-30T22:16:48.359Z,100.00
2022-09-30T22:17:51.392Z,100.00
2022-09-30T22:18:54.406Z,100.00
2022-09-30T22:19:57.791Z,100.00
2022-09-30T22:21:15.712Z,100.00
2022-09-30T22:22:17.317Z,100.00
2022-09-30T22:23:18.897Z,100.00
2022-09-30T22:24:21.948Z,100.00
2022-09-30T22:25:24.269Z,100.00
2022-09-30T22:26:26.351Z,100.00
2022-09-30T22:27:28.231Z,100.00
2022-09-30T22:28:29.864Z,100.00
2022-09-30T22:29:32.437Z,100.00
2022-09-30T22:30:35.203Z,100.00
2022-09-30T22:31:37.327Z,100.00
2022-09-30T22:32:39.379Z,100.00
2022-09-30T22:33:59.591Z,100.00
2022-09-30T22:35:20.229Z,100.00
2022-09-30T22:36:40.414Z,100.00
2022-09-30T22:38:01.009Z,100.00
2022-09-30T22:39:02.674Z,100.00
2022-09-30T22:40:06.021Z,100.00
2022-09-30T22:41:07.623Z,100.00
2022-09-30T22:42:09.472Z,100.00
2022-09-30T22:43:11.211Z,100.00
2022-09-30T22:44:12.916Z,100.00
2022-09-30T22:45:14.590Z,100.00
2022-09-30T22:46:16.261Z,100.00
2022-09-30T22:47:17.962Z,100.00
2022-09-30T22:48:19.591Z,100.00
2022-09-30T22:49:22.116Z,100.00
2022-09-30T22:50:26.157Z,100.00
2022-09-30T22:51:27.836Z,100.00
2022-09-30T22:52:31.106Z,100.00
2022-09-30T22:53:33.914Z,100.00
2022-09-30T22:54:36.908Z,100.00
2022-09-30T22:55:38.672Z,100.00
2022-09-30T22:56:40.376Z,100.00
2022-09-30T22:57:42.055Z,100.00
2022-09-30T22:58:44.881Z,100.00
2022-09-30T22:59:47.606Z,100.00
2022-09-30T23:00:53.823Z,100.00
2022-09-30T23:01:57.212Z,100.00
2022-09-30T23:02:58.878Z,100.00
2022-09-30T23:04:00.638Z,100.00
2022-09-30T23:05:03.046Z,100.00
2022-09-30T23:06:05.899Z,100.00
2022-09-30T23:07:07.675Z,100.00
2022-09-30T23:08:09.341Z,100.00
2022-09-30T23:09:11.067Z,100.00
2022-09-30T23:10:12.751Z,100.00
2022-09-30T23:11:16.846Z,100.00
2022-09-30T23:12:18.528Z,100.00
2022-09-30T23:13:20.221Z,100.00
2022-09-30T23:14:22.802Z,100.00
2022-09-30T23:15:24.485Z,100.00
2022-09-30T23:16:27.171Z,100.00
2022-09-30T23:17:28.789Z,100.00
2022-09-30T23:18:33.323Z,100.00
2022-09-30T23:19:34.943Z,100.00
2022-09-30T23:20:36.583Z,100.00
2022-09-30T23:21:38.411Z,100.00
2022-09-30T23:22:40.055Z,100.00
2022-09-30T23:23:41.841Z,100.00
2022-09-30T23:24:43.450Z,100.00
2022-09-30T23:25:45.129Z,100.00
2022-09-30T23:26:47.855Z,100.00
2022-09-30T23:27:49.667Z,100.00
2022-09-30T23:29:02.518Z,100.00
2022-09-30T23:30:04.464Z,100.00
2022-09-30T23:31:11.508Z,100.00
2022-09-30T23:32:13.427Z,100.00
2022-09-30T23:33:15.125Z,100.00
2022-09-30T23:34:17.515Z,100.00
2022-09-30T23:35:19.319Z,100.00
2022-09-30T23:36:26.507Z,100.00
2022-09-30T23:37:28.279Z,100.00
2022-09-30T23:38:30.812Z,100.00
2022-09-30T23:39:32.430Z,100.00
2022-09-30T23:40:34.179Z,100.00
2022-09-30T23:41:36.289Z,100.00
2022-09-30T23:42:38.505Z,100.00
2022-09-30T23:43:45.879Z,100.00
2022-09-30T23:44:47.464Z,100.00
2022-09-30T23:45:49.471Z,100.00
2022-09-30T23:47:09.518Z,100.00
2022-09-30T23:48:11.119Z,100.00
2022-09-30T23:49:12.793Z,100.00
2022-09-30T23:50:15.208Z,100.00
2022-09-30T23:51:19.229Z,100.00
2022-09-30T23:52:21.062Z,100.00
2022-09-30T23:53:23.075Z,100.00
2022-09-30T23:54:24.737Z,100.00
2022-09-30T23:55:27.846Z,100.00
2022-09-30T23:56:29.635Z,100.00
2022-09-30T23:57:31.956Z,100.00
2022-09-30T23:58:34.448Z,100.00
2022-09-30T23:59:36.202Z,100.00
